BBB077 LTFM-LIRF
Flight info
| Callsign | BBB077 |
|---|---|
| Flight time | 1h 59m |
| Altitude | 40000 |
| Route | BARPE1D/35L BARPE UM603 SUTIS DCT DISOR DCT ENFAR DCT RETRA DCT KATTI/N0469F410 DCT ESODU/N0412F190 Z924 MOPUV |
| Aircraft | A339/H-SADE1E2E3GHIJ3J5M1P2RWXY/LB2D1 |
Departure
| Time | 2026-05-04 19:40 |
|---|---|
| Airport | İstanbul Airport (LTFM) |
Arrival
| Time | 2026-05-04 21:39 |
|---|---|
| Airport | Rome–Fiumicino Leonardo da Vinci International Airport (LIRF) |
| Time | Latitude | Longitude | Altitude | Speed | Heading |
|---|---|---|---|---|---|
| 2026-05-04 16:26 | 41.26472 | 28.73539 | 342 ft | 0 kts | 71° |
| 2026-05-04 19:27 | 41.26471 | 28.73531 | 343 ft | 2 kts | 71° |
| 2026-05-04 19:27 | 41.26466 | 28.73512 | 343 ft | 2 kts | 71° |
| 2026-05-04 19:27 | 41.26461 | 28.73493 | 343 ft | 2 kts | 82° |
| 2026-05-04 19:28 | 41.26461 | 28.73473 | 343 ft | 2 kts | 95° |
| 2026-05-04 19:28 | 41.26463 | 28.73454 | 343 ft | 2 kts | 107° |
| 2026-05-04 19:28 | 41.26469 | 28.73435 | 343 ft | 2 kts | 119° |
| 2026-05-04 19:28 | 41.26477 | 28.73419 | 343 ft | 2 kts | 131° |
| 2026-05-04 19:29 | 41.26487 | 28.73406 | 343 ft | 2 kts | 143° |
| 2026-05-04 19:29 | 41.26500 | 28.73395 | 343 ft | 2 kts | 155° |
| 2026-05-04 19:29 | 41.26509 | 28.73390 | 343 ft | 0 kts | 163° |
| 2026-05-04 19:29 | 41.26512 | 28.73388 | 343 ft | 0 kts | 163° |
| 2026-05-04 19:32 | 41.26500 | 28.73393 | 343 ft | 5 kts | 163° |
| 2026-05-04 19:32 | 41.26452 | 28.73412 | 343 ft | 8 kts | 164° |
| 2026-05-04 19:33 | 41.26388 | 28.73437 | 343 ft | 10 kts | 163° |
| 2026-05-04 19:33 | 41.26317 | 28.73467 | 343 ft | 10 kts | 160° |
| 2026-05-04 19:33 | 41.26254 | 28.73493 | 343 ft | 8 kts | 175° |
| 2026-05-04 19:33 | 41.26218 | 28.73453 | 343 ft | 8 kts | 263° |
| 2026-05-04 19:34 | 41.26220 | 28.73366 | 343 ft | 10 kts | 271° |
| 2026-05-04 19:34 | 41.26219 | 28.73264 | 343 ft | 11 kts | 270° |
| 2026-05-04 19:34 | 41.26219 | 28.73153 | 343 ft | 11 kts | 270° |
| 2026-05-04 19:34 | 41.26218 | 28.73046 | 343 ft | 9 kts | 269° |
| 2026-05-04 19:35 | 41.26218 | 28.72992 | 343 ft | 0 kts | 269° |
| 2026-05-04 19:37 | 41.26218 | 28.72986 | 343 ft | 3 kts | 270° |
| 2026-05-04 19:37 | 41.26218 | 28.72905 | 343 ft | 12 kts | 270° |
| 2026-05-04 19:37 | 41.26218 | 28.72781 | 343 ft | 13 kts | 270° |
| 2026-05-04 19:38 | 41.26215 | 28.72653 | 343 ft | 9 kts | 267° |
| 2026-05-04 19:38 | 41.26212 | 28.72571 | 343 ft | 7 kts | 268° |
| 2026-05-04 19:38 | 41.26221 | 28.72530 | 343 ft | 2 kts | 326° |
| 2026-05-04 19:38 | 41.26250 | 28.72520 | 343 ft | 5 kts | 355° |
| 2026-05-04 19:39 | 41.26330 | 28.72517 | 343 ft | 29 kts | 359° |
| 2026-05-04 19:39 | 41.26790 | 28.72508 | 343 ft | 100 kts | 359° |
| 2026-05-04 19:39 | 41.27686 | 28.72488 | 361 ft | 153 kts | 355° |
| 2026-05-04 19:39 | 41.28778 | 28.72459 | 884 ft | 160 kts | 358° |
| 2026-05-04 19:40 | 41.29841 | 28.72455 | 1741 ft | 152 kts | 360° |
| 2026-05-04 19:40 | 41.30864 | 28.72467 | 2461 ft | 152 kts | 1° |
| 2026-05-04 19:40 | 41.31981 | 28.72491 | 2893 ft | 167 kts | 1° |
| 2026-05-04 19:40 | 41.33197 | 28.72520 | 3244 ft | 185 kts | 2° |
| 2026-05-04 19:41 | 41.34536 | 28.72552 | 3641 ft | 203 kts | 1° |
| 2026-05-04 19:41 | 41.35995 | 28.72232 | 4046 ft | 226 kts | 340° |
| 2026-05-04 19:41 | 41.37313 | 28.70916 | 4636 ft | 248 kts | 315° |
| 2026-05-04 19:41 | 41.38078 | 28.68849 | 5448 ft | 265 kts | 289° |
| 2026-05-04 19:42 | 41.38168 | 28.66328 | 6281 ft | 275 kts | 277° |
| 2026-05-04 19:42 | 41.38135 | 28.63792 | 7084 ft | 278 kts | 277° |
| 2026-05-04 19:42 | 41.38103 | 28.61225 | 7846 ft | 282 kts | 277° |
| 2026-05-04 19:42 | 41.37815 | 28.58619 | 8541 ft | 301 kts | 255° |
| 2026-05-04 19:43 | 41.36585 | 28.56281 | 9273 ft | 320 kts | 224° |
| 2026-05-04 19:43 | 41.34600 | 28.54929 | 10016 ft | 329 kts | 191° |
| 2026-05-04 19:43 | 41.32431 | 28.54758 | 10682 ft | 332 kts | 175° |
| 2026-05-04 19:43 | 41.30076 | 28.54946 | 11097 ft | 348 kts | 173° |
| 2026-05-04 19:44 | 41.27598 | 28.55160 | 11473 ft | 367 kts | 175° |
| 2026-05-04 19:44 | 41.24972 | 28.55001 | 11809 ft | 389 kts | 187° |
| 2026-05-04 19:44 | 41.22276 | 28.54131 | 12128 ft | 408 kts | 199° |
| 2026-05-04 19:44 | 41.19570 | 28.52808 | 12585 ft | 421 kts | 201° |
| 2026-05-04 19:45 | 41.16839 | 28.51380 | 13336 ft | 426 kts | 201° |
| 2026-05-04 19:45 | 41.14086 | 28.49953 | 14133 ft | 428 kts | 201° |
| 2026-05-04 19:45 | 41.11303 | 28.48542 | 14865 ft | 433 kts | 201° |
| 2026-05-04 19:45 | 41.08474 | 28.47134 | 15545 ft | 439 kts | 200° |
| 2026-05-04 19:46 | 41.05564 | 28.45878 | 16200 ft | 444 kts | 195° |
| 2026-05-04 19:46 | 41.02568 | 28.44856 | 16912 ft | 449 kts | 192° |
| 2026-05-04 19:46 | 40.99519 | 28.43916 | 17560 ft | 455 kts | 192° |
| 2026-05-04 19:46 | 40.96427 | 28.42974 | 18157 ft | 461 kts | 192° |
| 2026-05-04 19:47 | 40.93303 | 28.42011 | 18816 ft | 466 kts | 193° |
| 2026-05-04 19:47 | 40.90229 | 28.40585 | 19386 ft | 472 kts | 210° |
| 2026-05-04 19:47 | 40.87679 | 28.37904 | 20012 ft | 471 kts | 232° |
| 2026-05-04 19:47 | 40.85989 | 28.34256 | 20688 ft | 463 kts | 253° |
| 2026-05-04 19:48 | 40.85252 | 28.30180 | 21306 ft | 456 kts | 267° |
| 2026-05-04 19:48 | 40.84864 | 28.26033 | 21866 ft | 459 kts | 269° |
| 2026-05-04 19:48 | 40.84438 | 28.21815 | 22413 ft | 465 kts | 266° |
| 2026-05-04 19:48 | 40.83904 | 28.17615 | 22966 ft | 470 kts | 265° |
| 2026-05-04 19:49 | 40.83287 | 28.13356 | 23515 ft | 473 kts | 264° |
| 2026-05-04 19:49 | 40.82639 | 28.09081 | 24070 ft | 476 kts | 263° |
| 2026-05-04 19:49 | 40.81973 | 28.04763 | 24595 ft | 479 kts | 263° |
| 2026-05-04 19:49 | 40.81312 | 28.00461 | 25077 ft | 482 kts | 263° |
| 2026-05-04 19:50 | 40.80651 | 27.96139 | 25544 ft | 486 kts | 263° |
| 2026-05-04 19:50 | 40.80040 | 27.91778 | 26031 ft | 486 kts | 266° |
| 2026-05-04 19:50 | 40.79638 | 27.87378 | 26519 ft | 486 kts | 270° |
| 2026-05-04 19:50 | 40.79461 | 27.82964 | 27014 ft | 485 kts | 274° |
| 2026-05-04 19:51 | 40.79472 | 27.78541 | 27447 ft | 486 kts | 276° |
| 2026-05-04 19:51 | 40.79533 | 27.74101 | 27889 ft | 488 kts | 276° |
| 2026-05-04 19:51 | 40.79596 | 27.69638 | 28319 ft | 490 kts | 276° |
| 2026-05-04 19:51 | 40.79744 | 27.65170 | 28745 ft | 490 kts | 279° |
| 2026-05-04 19:52 | 40.80090 | 27.60739 | 29323 ft | 486 kts | 283° |
| 2026-05-04 19:52 | 40.80637 | 27.56357 | 29983 ft | 480 kts | 287° |
| 2026-05-04 19:52 | 40.81372 | 27.52118 | 30605 ft | 474 kts | 290° |
| 2026-05-04 19:52 | 40.82226 | 27.47957 | 31151 ft | 472 kts | 291° |
| 2026-05-04 19:53 | 40.83103 | 27.43813 | 31633 ft | 472 kts | 291° |
| 2026-05-04 19:53 | 40.83987 | 27.39646 | 32083 ft | 472 kts | 291° |
| 2026-05-04 19:53 | 40.84861 | 27.35494 | 32556 ft | 472 kts | 290° |
| 2026-05-04 19:53 | 40.85724 | 27.31365 | 33009 ft | 472 kts | 290° |
| 2026-05-04 19:54 | 40.86594 | 27.27174 | 33494 ft | 471 kts | 290° |
| 2026-05-04 19:54 | 40.87447 | 27.23053 | 33951 ft | 470 kts | 289° |
| 2026-05-04 19:54 | 40.88309 | 27.18868 | 34410 ft | 469 kts | 289° |
| 2026-05-04 19:54 | 40.89163 | 27.14724 | 34810 ft | 469 kts | 289° |
| 2026-05-04 19:55 | 40.90014 | 27.10588 | 35126 ft | 469 kts | 289° |
| 2026-05-04 19:55 | 40.90769 | 27.06417 | 35429 ft | 470 kts | 286° |
| 2026-05-04 19:55 | 40.91354 | 27.02194 | 35759 ft | 470 kts | 282° |
| 2026-05-04 19:55 | 40.91759 | 26.97929 | 36102 ft | 470 kts | 279° |
| 2026-05-04 19:56 | 40.91983 | 26.93644 | 36424 ft | 470 kts | 276° |
| 2026-05-04 19:56 | 40.92027 | 26.89353 | 36745 ft | 470 kts | 273° |
| 2026-05-04 19:56 | 40.91890 | 26.85063 | 37121 ft | 470 kts | 270° |
| 2026-05-04 19:56 | 40.91644 | 26.80787 | 37484 ft | 469 kts | 269° |
| 2026-05-04 19:57 | 40.91383 | 26.76523 | 37847 ft | 467 kts | 269° |
| 2026-05-04 19:57 | 40.91123 | 26.72272 | 38171 ft | 466 kts | 269° |
| 2026-05-04 19:57 | 40.90865 | 26.68029 | 38461 ft | 466 kts | 269° |
| 2026-05-04 19:57 | 40.90609 | 26.63786 | 38694 ft | 466 kts | 269° |
| 2026-05-04 19:58 | 40.90353 | 26.59533 | 38903 ft | 467 kts | 269° |
| 2026-05-04 19:58 | 40.90097 | 26.55271 | 39098 ft | 469 kts | 269° |
| 2026-05-04 19:58 | 40.89838 | 26.50996 | 39304 ft | 469 kts | 269° |
| 2026-05-04 19:58 | 40.89577 | 26.46720 | 39506 ft | 470 kts | 269° |
| 2026-05-04 19:59 | 40.89314 | 26.42434 | 39676 ft | 471 kts | 269° |
| 2026-05-04 19:59 | 40.89048 | 26.38141 | 39801 ft | 472 kts | 269° |
| 2026-05-04 19:59 | 40.88785 | 26.33892 | 39954 ft | 473 kts | 269° |
| 2026-05-04 19:59 | 40.88515 | 26.29584 | 40065 ft | 474 kts | 268° |
| 2026-05-04 20:00 | 40.88234 | 26.25265 | 40074 ft | 475 kts | 267° |
| 2026-05-04 20:00 | 40.87439 | 26.16639 | 40083 ft | 476 kts | 266° |
| 2026-05-04 20:01 | 40.86600 | 26.08016 | 40065 ft | 476 kts | 266° |
| 2026-05-04 20:01 | 40.85754 | 25.99385 | 40065 ft | 477 kts | 266° |
| 2026-05-04 20:02 | 40.84836 | 25.90704 | 40067 ft | 477 kts | 264° |
| 2026-05-04 20:02 | 40.83776 | 25.82087 | 40067 ft | 477 kts | 264° |
| 2026-05-04 20:03 | 40.82715 | 25.73508 | 40065 ft | 475 kts | 264° |
| 2026-05-04 20:03 | 40.81659 | 25.64947 | 40080 ft | 475 kts | 264° |
| 2026-05-04 20:04 | 40.80604 | 25.56397 | 40076 ft | 474 kts | 264° |
| 2026-05-04 20:04 | 40.79541 | 25.47856 | 40077 ft | 474 kts | 264° |
| 2026-05-04 20:05 | 40.78468 | 25.39268 | 40083 ft | 473 kts | 264° |
| 2026-05-04 20:05 | 40.77400 | 25.30761 | 40086 ft | 473 kts | 264° |
| 2026-05-04 20:06 | 40.76323 | 25.22261 | 40079 ft | 472 kts | 263° |
| 2026-05-04 20:06 | 40.75240 | 25.13774 | 40085 ft | 472 kts | 264° |
| 2026-05-04 20:07 | 40.74160 | 25.05353 | 40081 ft | 471 kts | 263° |
| 2026-05-04 20:07 | 40.73066 | 24.96888 | 40079 ft | 471 kts | 263° |
| 2026-05-04 20:08 | 40.71971 | 24.88428 | 40076 ft | 471 kts | 264° |
| 2026-05-04 20:08 | 40.71455 | 24.79925 | 40083 ft | 466 kts | 274° |
| 2026-05-04 20:09 | 40.71968 | 24.71499 | 40080 ft | 462 kts | 282° |
| 2026-05-04 20:09 | 40.73476 | 24.63349 | 40079 ft | 459 kts | 291° |
| 2026-05-04 20:10 | 40.75664 | 24.55467 | 40082 ft | 458 kts | 293° |
| 2026-05-04 20:10 | 40.77896 | 24.47646 | 40078 ft | 458 kts | 293° |
| 2026-05-04 20:11 | 40.80109 | 24.39825 | 40078 ft | 457 kts | 293° |
| 2026-05-04 20:11 | 40.82311 | 24.31999 | 40080 ft | 458 kts | 292° |
| 2026-05-04 20:12 | 40.84505 | 24.24164 | 40079 ft | 458 kts | 292° |
| 2026-05-04 20:12 | 40.86688 | 24.16344 | 40084 ft | 456 kts | 292° |
| 2026-05-04 20:13 | 40.88892 | 24.08426 | 40081 ft | 457 kts | 292° |
| 2026-05-04 20:13 | 40.91068 | 24.00579 | 40088 ft | 458 kts | 292° |
| 2026-05-04 20:14 | 40.93245 | 23.92704 | 40080 ft | 458 kts | 292° |
| 2026-05-04 20:14 | 40.95414 | 23.84830 | 40082 ft | 458 kts | 292° |
| 2026-05-04 20:15 | 40.97575 | 23.76960 | 40088 ft | 458 kts | 292° |
| 2026-05-04 20:15 | 40.99733 | 23.69084 | 40093 ft | 457 kts | 292° |
| 2026-05-04 20:16 | 41.01881 | 23.61212 | 40089 ft | 456 kts | 292° |
| 2026-05-04 20:16 | 41.04038 | 23.53291 | 40092 ft | 457 kts | 292° |
| 2026-05-04 20:17 | 41.06174 | 23.45415 | 40095 ft | 457 kts | 293° |
| 2026-05-04 20:17 | 41.08305 | 23.37534 | 40100 ft | 456 kts | 292° |
| 2026-05-04 20:18 | 41.10436 | 23.29628 | 40101 ft | 457 kts | 292° |
| 2026-05-04 20:18 | 41.12554 | 23.21739 | 40102 ft | 457 kts | 292° |
| 2026-05-04 20:19 | 41.14669 | 23.13844 | 40102 ft | 456 kts | 292° |
| 2026-05-04 20:19 | 41.16772 | 23.05960 | 40100 ft | 455 kts | 292° |
| 2026-05-04 20:20 | 41.18724 | 22.98626 | 40106 ft | 456 kts | 292° |
| 2026-05-04 20:20 | 41.20805 | 22.90770 | 40109 ft | 455 kts | 292° |
| 2026-05-04 20:21 | 41.22890 | 22.82879 | 40115 ft | 455 kts | 292° |
| 2026-05-04 20:21 | 41.25959 | 22.71022 | 40114 ft | 455 kts | 291° |
| 2026-05-04 20:22 | 41.27901 | 22.63082 | 40107 ft | 455 kts | 291° |
| 2026-05-04 20:22 | 41.29832 | 22.55147 | 40121 ft | 453 kts | 291° |
| 2026-05-04 20:23 | 41.31758 | 22.47216 | 40120 ft | 453 kts | 291° |
| 2026-05-04 20:23 | 41.33681 | 22.39292 | 40123 ft | 453 kts | 291° |
| 2026-05-04 20:24 | 41.35597 | 22.31367 | 40130 ft | 453 kts | 290° |
| 2026-05-04 20:24 | 41.37504 | 22.23445 | 40122 ft | 452 kts | 290° |
| 2026-05-04 20:25 | 41.39405 | 22.15528 | 40129 ft | 452 kts | 290° |
| 2026-05-04 20:25 | 41.41298 | 22.07619 | 40139 ft | 451 kts | 290° |
| 2026-05-04 20:26 | 41.43185 | 21.99709 | 40118 ft | 451 kts | 290° |
| 2026-05-04 20:26 | 41.45068 | 21.91785 | 40126 ft | 451 kts | 290° |
| 2026-05-04 20:27 | 41.46943 | 21.83872 | 40133 ft | 450 kts | 290° |
| 2026-05-04 20:27 | 41.48811 | 21.75948 | 40133 ft | 451 kts | 290° |
| 2026-05-04 20:28 | 41.50676 | 21.68022 | 40125 ft | 450 kts | 290° |
| 2026-05-04 20:28 | 41.52534 | 21.60092 | 40142 ft | 450 kts | 290° |
| 2026-05-04 20:29 | 41.54388 | 21.52158 | 40149 ft | 450 kts | 290° |
| 2026-05-04 20:29 | 41.56233 | 21.44223 | 40152 ft | 450 kts | 290° |
| 2026-05-04 20:30 | 41.58072 | 21.36291 | 40155 ft | 450 kts | 290° |
| 2026-05-04 20:30 | 41.59903 | 21.28364 | 40157 ft | 450 kts | 290° |
| 2026-05-04 20:31 | 41.61729 | 21.20429 | 40155 ft | 450 kts | 290° |
| 2026-05-04 20:31 | 41.63543 | 21.12524 | 40154 ft | 449 kts | 290° |
| 2026-05-04 20:32 | 41.65368 | 21.04545 | 40161 ft | 449 kts | 290° |
| 2026-05-04 20:32 | 41.67178 | 20.96592 | 40162 ft | 449 kts | 290° |
| 2026-05-04 20:33 | 41.68982 | 20.88638 | 40186 ft | 449 kts | 290° |
| 2026-05-04 20:33 | 41.70776 | 20.80689 | 40157 ft | 448 kts | 290° |
| 2026-05-04 20:34 | 41.72563 | 20.72752 | 40180 ft | 448 kts | 290° |
| 2026-05-04 20:34 | 41.74343 | 20.64811 | 40171 ft | 447 kts | 290° |
| 2026-05-04 20:35 | 41.76205 | 20.56917 | 40174 ft | 446 kts | 293° |
| 2026-05-04 20:35 | 41.78569 | 20.49299 | 40188 ft | 444 kts | 298° |
| 2026-05-04 20:36 | 41.81358 | 20.41989 | 40178 ft | 442 kts | 300° |
| 2026-05-04 20:36 | 41.84194 | 20.34727 | 40187 ft | 442 kts | 299° |
| 2026-05-04 20:37 | 41.87022 | 20.27455 | 40173 ft | 442 kts | 299° |
| 2026-05-04 20:37 | 41.89842 | 20.20184 | 40171 ft | 441 kts | 299° |
| 2026-05-04 20:38 | 41.92654 | 20.12906 | 40164 ft | 441 kts | 299° |
| 2026-05-04 20:38 | 41.95461 | 20.05626 | 40170 ft | 442 kts | 299° |
| 2026-05-04 20:39 | 41.98253 | 19.98363 | 40155 ft | 443 kts | 299° |
| 2026-05-04 20:39 | 42.01081 | 19.90988 | 40152 ft | 443 kts | 299° |
| 2026-05-04 20:40 | 42.03859 | 19.83719 | 40147 ft | 441 kts | 299° |
| 2026-05-04 20:40 | 42.06644 | 19.76417 | 40149 ft | 440 kts | 299° |
| 2026-05-04 20:41 | 42.09420 | 19.69120 | 40157 ft | 440 kts | 299° |
| 2026-05-04 20:41 | 42.12196 | 19.61803 | 40147 ft | 440 kts | 299° |
| 2026-05-04 20:42 | 42.14954 | 19.54505 | 40148 ft | 440 kts | 299° |
| 2026-05-04 20:42 | 42.17713 | 19.47192 | 40143 ft | 440 kts | 299° |
| 2026-05-04 20:43 | 42.20276 | 19.39745 | 40141 ft | 441 kts | 295° |
| 2026-05-04 20:43 | 42.22288 | 19.31956 | 40138 ft | 443 kts | 289° |
| 2026-05-04 20:44 | 42.23714 | 19.23892 | 40136 ft | 445 kts | 283° |
| 2026-05-04 20:44 | 42.24612 | 19.15663 | 40140 ft | 446 kts | 281° |
| 2026-05-04 20:45 | 42.25413 | 19.07411 | 40144 ft | 445 kts | 281° |
| 2026-05-04 20:45 | 42.26208 | 18.99164 | 40139 ft | 446 kts | 281° |
| 2026-05-04 20:46 | 42.27002 | 18.90914 | 40134 ft | 446 kts | 281° |
| 2026-05-04 20:46 | 42.27790 | 18.82661 | 40130 ft | 446 kts | 281° |
| 2026-05-04 20:47 | 42.28571 | 18.74420 | 40124 ft | 444 kts | 281° |
| 2026-05-04 20:47 | 42.29347 | 18.66190 | 40124 ft | 444 kts | 281° |
| 2026-05-04 20:48 | 42.30116 | 18.57973 | 40129 ft | 443 kts | 281° |
| 2026-05-04 20:48 | 42.30878 | 18.49744 | 40124 ft | 443 kts | 281° |
| 2026-05-04 20:49 | 42.31632 | 18.41539 | 40123 ft | 442 kts | 281° |
| 2026-05-04 20:49 | 42.32376 | 18.33385 | 40128 ft | 443 kts | 280° |
| 2026-05-04 20:50 | 42.33123 | 18.25112 | 40127 ft | 443 kts | 280° |
| 2026-05-04 20:50 | 42.33860 | 18.16902 | 40125 ft | 442 kts | 280° |
| 2026-05-04 20:51 | 42.34589 | 18.08735 | 40127 ft | 441 kts | 280° |
| 2026-05-04 20:51 | 42.35312 | 18.00545 | 40124 ft | 441 kts | 280° |
| 2026-05-04 20:52 | 42.36026 | 17.92383 | 40135 ft | 439 kts | 280° |
| 2026-05-04 20:52 | 42.36733 | 17.84240 | 40131 ft | 438 kts | 280° |
| 2026-05-04 20:53 | 42.37432 | 17.76105 | 40129 ft | 438 kts | 280° |
| 2026-05-04 20:53 | 42.38129 | 17.67961 | 40129 ft | 438 kts | 280° |
| 2026-05-04 20:54 | 42.38817 | 17.59821 | 40126 ft | 438 kts | 280° |
| 2026-05-04 20:54 | 42.39498 | 17.51694 | 40124 ft | 437 kts | 280° |
| 2026-05-04 20:55 | 42.40174 | 17.43577 | 40119 ft | 436 kts | 280° |
| 2026-05-04 20:55 | 42.40842 | 17.35472 | 40118 ft | 435 kts | 280° |
| 2026-05-04 20:56 | 42.41506 | 17.27364 | 40116 ft | 434 kts | 279° |
| 2026-05-04 20:56 | 42.42159 | 17.19292 | 40115 ft | 433 kts | 279° |
| 2026-05-04 20:57 | 42.42804 | 17.11244 | 40112 ft | 433 kts | 279° |
| 2026-05-04 20:57 | 42.43446 | 17.03183 | 40114 ft | 433 kts | 279° |
| 2026-05-04 20:58 | 42.44080 | 16.95130 | 40111 ft | 432 kts | 279° |
| 2026-05-04 20:58 | 42.44709 | 16.87084 | 40105 ft | 433 kts | 279° |
| 2026-05-04 20:59 | 42.45334 | 16.79030 | 40100 ft | 433 kts | 279° |
| 2026-05-04 20:59 | 42.45951 | 16.70965 | 40099 ft | 432 kts | 279° |
| 2026-05-04 21:00 | 42.46563 | 16.62925 | 40094 ft | 431 kts | 279° |
| 2026-05-04 21:00 | 42.47167 | 16.54885 | 40089 ft | 432 kts | 279° |
| 2026-05-04 21:01 | 42.47767 | 16.46839 | 40099 ft | 431 kts | 279° |
| 2026-05-04 21:01 | 42.48359 | 16.38796 | 40084 ft | 431 kts | 279° |
| 2026-05-04 21:02 | 42.48946 | 16.30742 | 40090 ft | 432 kts | 278° |
| 2026-05-04 21:02 | 42.49528 | 16.22694 | 40095 ft | 431 kts | 278° |
| 2026-05-04 21:03 | 42.50100 | 16.14659 | 40099 ft | 430 kts | 278° |
| 2026-05-04 21:03 | 42.50597 | 16.06627 | 40102 ft | 431 kts | 275° |
| 2026-05-04 21:04 | 42.50595 | 15.98540 | 40100 ft | 433 kts | 271° |
| 2026-05-04 21:04 | 42.50346 | 15.90431 | 40101 ft | 433 kts | 271° |
| 2026-05-04 21:05 | 42.50087 | 15.82319 | 40095 ft | 433 kts | 271° |
| 2026-05-04 21:05 | 42.49820 | 15.74174 | 40097 ft | 432 kts | 271° |
| 2026-05-04 21:06 | 42.49551 | 15.66110 | 40095 ft | 432 kts | 271° |
| 2026-05-04 21:06 | 42.49276 | 15.58020 | 40094 ft | 432 kts | 271° |
| 2026-05-04 21:07 | 42.48994 | 15.49927 | 40085 ft | 433 kts | 271° |
| 2026-05-04 21:07 | 42.48706 | 15.41816 | 40082 ft | 434 kts | 271° |
| 2026-05-04 21:08 | 42.48413 | 15.33699 | 40079 ft | 433 kts | 270° |
| 2026-05-04 21:08 | 42.48114 | 15.25572 | 40077 ft | 433 kts | 270° |
| 2026-05-04 21:09 | 42.47810 | 15.17474 | 40080 ft | 432 kts | 270° |
| 2026-05-04 21:09 | 42.47501 | 15.09386 | 40080 ft | 432 kts | 270° |
| 2026-05-04 21:10 | 42.47186 | 15.01292 | 40078 ft | 432 kts | 270° |
| 2026-05-04 21:10 | 42.46863 | 14.93188 | 40071 ft | 433 kts | 270° |
| 2026-05-04 21:11 | 42.46535 | 14.85070 | 40070 ft | 434 kts | 270° |
| 2026-05-04 21:11 | 42.46200 | 14.76935 | 40078 ft | 434 kts | 270° |
| 2026-05-04 21:12 | 42.45858 | 14.68774 | 40077 ft | 434 kts | 270° |
| 2026-05-04 21:12 | 42.45512 | 14.60712 | 39764 ft | 431 kts | 270° |
| 2026-05-04 21:13 | 42.45337 | 14.56684 | 39098 ft | 431 kts | 270° |
| 2026-05-04 21:13 | 42.45158 | 14.52609 | 38266 ft | 433 kts | 270° |
| 2026-05-04 21:13 | 42.44980 | 14.48564 | 37448 ft | 434 kts | 270° |
| 2026-05-04 21:13 | 42.44801 | 14.44523 | 36683 ft | 433 kts | 270° |
| 2026-05-04 21:14 | 42.44615 | 14.40497 | 35899 ft | 434 kts | 268° |
| 2026-05-04 21:14 | 42.44175 | 14.36443 | 35022 ft | 438 kts | 262° |
| 2026-05-04 21:14 | 42.43378 | 14.32477 | 34155 ft | 443 kts | 255° |
| 2026-05-04 21:14 | 42.42221 | 14.28579 | 33273 ft | 448 kts | 249° |
| 2026-05-04 21:15 | 42.40757 | 14.24849 | 32316 ft | 453 kts | 245° |
| 2026-05-04 21:15 | 42.39203 | 14.21137 | 31318 ft | 457 kts | 245° |
| 2026-05-04 21:15 | 42.37625 | 14.17423 | 30275 ft | 460 kts | 245° |
| 2026-05-04 21:15 | 42.36045 | 14.13711 | 29277 ft | 462 kts | 244° |
| 2026-05-04 21:16 | 42.34449 | 14.09969 | 28449 ft | 461 kts | 244° |
| 2026-05-04 21:16 | 42.32864 | 14.06261 | 27865 ft | 454 kts | 243° |
| 2026-05-04 21:16 | 42.31290 | 14.02595 | 27335 ft | 447 kts | 243° |
| 2026-05-04 21:16 | 42.29734 | 13.98968 | 26706 ft | 443 kts | 243° |
| 2026-05-04 21:17 | 42.28204 | 13.95402 | 26062 ft | 440 kts | 243° |
| 2026-05-04 21:17 | 42.26689 | 13.91874 | 25406 ft | 437 kts | 242° |
| 2026-05-04 21:17 | 42.25172 | 13.88344 | 24770 ft | 434 kts | 242° |
| 2026-05-04 21:17 | 42.23680 | 13.84877 | 24146 ft | 430 kts | 242° |
| 2026-05-04 21:18 | 42.22189 | 13.81398 | 23537 ft | 426 kts | 243° |
| 2026-05-04 21:18 | 42.21136 | 13.77714 | 23186 ft | 415 kts | 260° |
| 2026-05-04 21:18 | 42.20993 | 13.73866 | 22608 ft | 412 kts | 270° |
| 2026-05-04 21:18 | 42.21013 | 13.69983 | 21798 ft | 416 kts | 270° |
| 2026-05-04 21:19 | 42.21023 | 13.66102 | 21056 ft | 417 kts | 270° |
| 2026-05-04 21:19 | 42.20983 | 13.62155 | 20308 ft | 417 kts | 269° |
| 2026-05-04 21:19 | 42.20927 | 13.58283 | 19778 ft | 412 kts | 269° |
| 2026-05-04 21:19 | 42.20869 | 13.54466 | 19318 ft | 406 kts | 269° |
| 2026-05-04 21:20 | 42.20810 | 13.50698 | 18772 ft | 403 kts | 269° |
| 2026-05-04 21:20 | 42.20753 | 13.46956 | 18212 ft | 400 kts | 269° |
| 2026-05-04 21:20 | 42.20695 | 13.43238 | 17638 ft | 398 kts | 269° |
| 2026-05-04 21:20 | 42.20638 | 13.39541 | 17080 ft | 395 kts | 269° |
| 2026-05-04 21:21 | 42.20580 | 13.35868 | 16533 ft | 393 kts | 269° |
| 2026-05-04 21:21 | 42.20522 | 13.32224 | 15986 ft | 390 kts | 268° |
| 2026-05-04 21:21 | 42.20463 | 13.28596 | 15430 ft | 388 kts | 268° |
| 2026-05-04 21:21 | 42.20402 | 13.24991 | 14899 ft | 386 kts | 268° |
| 2026-05-04 21:22 | 42.20341 | 13.21406 | 14369 ft | 383 kts | 268° |
| 2026-05-04 21:22 | 42.20278 | 13.17820 | 13834 ft | 381 kts | 268° |
| 2026-05-04 21:22 | 42.20217 | 13.14312 | 13363 ft | 377 kts | 268° |
| 2026-05-04 21:22 | 42.20155 | 13.10792 | 13162 ft | 374 kts | 268° |
| 2026-05-04 21:23 | 42.20091 | 13.07278 | 12919 ft | 373 kts | 268° |
| 2026-05-04 21:23 | 42.20027 | 13.03811 | 12388 ft | 373 kts | 268° |
| 2026-05-04 21:23 | 42.19964 | 13.00344 | 11972 ft | 368 kts | 268° |
| 2026-05-04 21:23 | 42.19900 | 12.96922 | 11635 ft | 361 kts | 268° |
| 2026-05-04 21:24 | 42.19835 | 12.93564 | 11301 ft | 354 kts | 267° |
| 2026-05-04 21:24 | 42.19771 | 12.90299 | 11155 ft | 342 kts | 267° |
| 2026-05-04 21:24 | 42.19707 | 12.87126 | 11030 ft | 331 kts | 267° |
| 2026-05-04 21:24 | 42.19644 | 12.84065 | 10743 ft | 326 kts | 267° |
| 2026-05-04 21:25 | 42.19581 | 12.81050 | 10468 ft | 320 kts | 267° |
| 2026-05-04 21:25 | 42.19519 | 12.78083 | 10182 ft | 316 kts | 267° |
| 2026-05-04 21:25 | 42.19456 | 12.75160 | 9907 ft | 311 kts | 267° |
| 2026-05-04 21:25 | 42.19394 | 12.72276 | 9645 ft | 307 kts | 267° |
| 2026-05-04 21:26 | 42.19333 | 12.69431 | 9390 ft | 303 kts | 266° |
| 2026-05-04 21:26 | 42.19272 | 12.66629 | 9177 ft | 297 kts | 266° |
| 2026-05-04 21:26 | 42.19211 | 12.63906 | 9138 ft | 286 kts | 266° |
| 2026-05-04 21:26 | 42.19153 | 12.61266 | 9010 ft | 279 kts | 266° |
| 2026-05-04 21:27 | 42.19093 | 12.58654 | 8691 ft | 279 kts | 266° |
| 2026-05-04 21:27 | 42.19034 | 12.56064 | 8392 ft | 279 kts | 266° |
| 2026-05-04 21:27 | 42.18973 | 12.53434 | 8108 ft | 279 kts | 266° |
| 2026-05-04 21:27 | 42.18913 | 12.50856 | 7835 ft | 277 kts | 266° |
| 2026-05-04 21:28 | 42.18852 | 12.48272 | 7564 ft | 276 kts | 266° |
| 2026-05-04 21:28 | 42.18790 | 12.45699 | 7291 ft | 276 kts | 265° |
| 2026-05-04 21:28 | 42.18729 | 12.43134 | 7017 ft | 275 kts | 265° |
| 2026-05-04 21:28 | 42.18667 | 12.40579 | 6788 ft | 272 kts | 265° |
| 2026-05-04 21:29 | 42.18605 | 12.38064 | 6615 ft | 267 kts | 265° |
| 2026-05-04 21:29 | 42.18542 | 12.35592 | 6443 ft | 262 kts | 263° |
| 2026-05-04 21:29 | 42.18273 | 12.33206 | 6272 ft | 256 kts | 252° |
| 2026-05-04 21:29 | 42.17781 | 12.30937 | 6103 ft | 251 kts | 249° |
| 2026-05-04 21:30 | 42.17252 | 12.28725 | 5813 ft | 247 kts | 248° |
| 2026-05-04 21:30 | 42.16729 | 12.26550 | 5533 ft | 243 kts | 249° |
| 2026-05-04 21:30 | 42.16219 | 12.24410 | 5263 ft | 239 kts | 249° |
| 2026-05-04 21:30 | 42.15716 | 12.22276 | 4997 ft | 235 kts | 249° |
| 2026-05-04 21:31 | 42.14127 | 12.18756 | 4448 ft | 219 kts | 200° |
| 2026-05-04 21:31 | 42.12684 | 12.18254 | 4210 ft | 214 kts | 188° |
| 2026-05-04 21:31 | 42.11226 | 12.17926 | 3984 ft | 210 kts | 188° |
| 2026-05-04 21:32 | 42.09787 | 12.17581 | 3762 ft | 207 kts | 189° |
| 2026-05-04 21:32 | 42.08380 | 12.17259 | 3530 ft | 203 kts | 184° |
| 2026-05-04 21:32 | 42.06994 | 12.17171 | 3273 ft | 202 kts | 176° |
| 2026-05-04 21:32 | 42.05616 | 12.17409 | 3096 ft | 198 kts | 167° |
| 2026-05-04 21:33 | 42.04269 | 12.17882 | 3011 ft | 199 kts | 163° |
| 2026-05-04 21:33 | 42.02973 | 12.18426 | 3010 ft | 188 kts | 162° |
| 2026-05-04 21:33 | 42.01791 | 12.18936 | 3001 ft | 168 kts | 162° |
| 2026-05-04 21:33 | 42.00737 | 12.19387 | 2988 ft | 149 kts | 162° |
| 2026-05-04 21:34 | 41.99787 | 12.19791 | 2981 ft | 139 kts | 162° |
| 2026-05-04 21:34 | 41.98850 | 12.20185 | 2906 ft | 139 kts | 162° |
| 2026-05-04 21:34 | 41.97926 | 12.20573 | 2719 ft | 138 kts | 162° |
| 2026-05-04 21:34 | 41.97014 | 12.20955 | 2536 ft | 138 kts | 162° |
| 2026-05-04 21:35 | 41.96090 | 12.21341 | 2350 ft | 137 kts | 161° |
| 2026-05-04 21:35 | 41.95178 | 12.21721 | 2167 ft | 137 kts | 161° |
| 2026-05-04 21:35 | 41.94272 | 12.22089 | 1990 ft | 137 kts | 161° |
| 2026-05-04 21:35 | 41.93364 | 12.22474 | 1802 ft | 137 kts | 161° |
| 2026-05-04 21:36 | 41.92456 | 12.22863 | 1626 ft | 136 kts | 160° |
| 2026-05-04 21:36 | 41.91551 | 12.23242 | 1447 ft | 136 kts | 161° |
| 2026-05-04 21:36 | 41.90648 | 12.23617 | 1275 ft | 136 kts | 161° |
| 2026-05-04 21:36 | 41.89752 | 12.23986 | 1090 ft | 135 kts | 161° |
| 2026-05-04 21:37 | 41.88854 | 12.24361 | 912 ft | 135 kts | 161° |
| 2026-05-04 21:37 | 41.87958 | 12.24736 | 733 ft | 135 kts | 161° |
| 2026-05-04 21:37 | 41.87065 | 12.25113 | 551 ft | 134 kts | 160° |
| 2026-05-04 21:37 | 41.86177 | 12.25493 | 381 ft | 134 kts | 161° |
| 2026-05-04 21:38 | 41.85288 | 12.25861 | 205 ft | 133 kts | 161° |
| 2026-05-04 21:38 | 41.84402 | 12.26230 | 40 ft | 133 kts | 161° |
| 2026-05-04 21:38 | 41.83581 | 12.26578 | 20 ft | 108 kts | 162° |
| 2026-05-04 21:38 | 41.83036 | 12.26807 | 19 ft | 55 kts | 161° |
| 2026-05-04 21:39 | 41.82745 | 12.26878 | 18 ft | 32 kts | 186° |
| 2026-05-04 21:39 | 41.82541 | 12.26823 | 18 ft | 29 kts | 193° |
| 2026-05-04 21:39 | 41.82358 | 12.26778 | 18 ft | 24 kts | 180° |
| 2026-05-04 21:39 | 41.82194 | 12.26831 | 18 ft | 23 kts | 162° |
| 2026-05-04 21:40 | 41.82037 | 12.26900 | 19 ft | 23 kts | 161° |
| 2026-05-04 21:40 | 41.81884 | 12.26969 | 19 ft | 22 kts | 161° |
| 2026-05-04 21:40 | 41.81734 | 12.27033 | 19 ft | 22 kts | 163° |
| 2026-05-04 21:40 | 41.81587 | 12.27092 | 20 ft | 22 kts | 163° |
| 2026-05-04 21:41 | 41.81441 | 12.27152 | 20 ft | 21 kts | 162° |
| 2026-05-04 21:41 | 41.81298 | 12.27214 | 20 ft | 21 kts | 161° |
| 2026-05-04 21:41 | 41.81158 | 12.27278 | 21 ft | 21 kts | 161° |
| 2026-05-04 21:41 | 41.81016 | 12.27326 | 21 ft | 21 kts | 164° |
| 2026-05-04 21:42 | 41.80875 | 12.27348 | 21 ft | 20 kts | 190° |
| 2026-05-04 21:42 | 41.80732 | 12.27312 | 21 ft | 19 kts | 192° |
| 2026-05-04 21:42 | 41.80650 | 12.27211 | 21 ft | 17 kts | 248° |
| 2026-05-04 21:42 | 41.80608 | 12.27057 | 22 ft | 17 kts | 249° |
| 2026-05-04 21:43 | 41.80564 | 12.26901 | 22 ft | 18 kts | 249° |
| 2026-05-04 21:43 | 41.80517 | 12.26740 | 22 ft | 18 kts | 249° |
| 2026-05-04 21:43 | 41.80473 | 12.26578 | 23 ft | 17 kts | 251° |
| 2026-05-04 21:43 | 41.80438 | 12.26442 | 23 ft | 12 kts | 250° |
| 2026-05-04 21:44 | 41.80397 | 12.26367 | 24 ft | 9 kts | 197° |
| 2026-05-04 21:44 | 41.80322 | 12.26380 | 24 ft | 11 kts | 166° |
| 2026-05-04 21:44 | 41.80238 | 12.26409 | 24 ft | 11 kts | 181° |
| 2026-05-04 21:44 | 41.80154 | 12.26375 | 24 ft | 13 kts | 204° |
| 2026-05-04 21:45 | 41.80064 | 12.26315 | 24 ft | 15 kts | 205° |
| 2026-05-04 21:45 | 41.79956 | 12.26248 | 24 ft | 18 kts | 204° |
| 2026-05-04 21:45 | 41.79834 | 12.26174 | 24 ft | 15 kts | 205° |
| 2026-05-04 21:45 | 41.79764 | 12.26110 | 24 ft | 11 kts | 243° |
| 2026-05-04 21:46 | 41.79785 | 12.26000 | 24 ft | 15 kts | 298° |
| 2026-05-04 21:46 | 41.79852 | 12.25823 | 24 ft | 26 kts | 296° |
| 2026-05-04 21:46 | 41.79929 | 12.25600 | 25 ft | 26 kts | 294° |
| 2026-05-04 21:46 | 41.80006 | 12.25379 | 24 ft | 25 kts | 296° |
| 2026-05-04 21:47 | 41.80078 | 12.25165 | 24 ft | 25 kts | 289° |
| 2026-05-04 21:47 | 41.80111 | 12.24937 | 24 ft | 24 kts | 268° |
| 2026-05-04 21:47 | 41.80063 | 12.24718 | 24 ft | 24 kts | 249° |
| 2026-05-04 21:47 | 41.80004 | 12.24509 | 24 ft | 23 kts | 249° |
| 2026-05-04 21:48 | 41.79958 | 12.24340 | 24 ft | 14 kts | 250° |
| 2026-05-04 21:48 | 41.79933 | 12.24260 | 24 ft | 4 kts | 221° |
| 2026-05-04 21:48 | 41.79893 | 12.24263 | 24 ft | 7 kts | 166° |
| 2026-05-04 21:48 | 41.79839 | 12.24297 | 24 ft | 9 kts | 141° |
| 2026-05-04 21:49 | 41.79800 | 12.24347 | 24 ft | 2 kts | 146° |
| 2026-05-04 21:49 | 41.79784 | 12.24347 | 24 ft | 3 kts | 205° |
| 2026-05-04 21:49 | 41.79757 | 12.24320 | 24 ft | 5 kts | 219° |
| 2026-05-04 21:49 | 41.79732 | 12.24293 | 24 ft | 3 kts | 219° |
| 2026-05-04 21:50 | 41.79717 | 12.24277 | 24 ft | 0 kts | 219° |
| 2026-05-04 21:50 | 41.79713 | 12.24273 | 24 ft | 0 kts | 218° |
| 2026-05-04 21:50 | 41.79711 | 12.24272 | 24 ft | 0 kts | 219° |